Time;durP1;ratioP1;P1;durP2;ratioP2;P2;SDS_P1;SDS_P2;PMS_P1;PMS_P2;Temp;Humidity;BMP_temperature;BMP_pressure;BME280_temperature;BME280_humidity;BME280_pressure;Samples;Min_cycle;Max_cycle;Signal;HPM_P1;HPM_P2
2023/07/31 04:05:41;;;;;;;0.97;0.90;;;16.00;99.90;;;;;;5398723;23;20456;-60
2023/07/31 04:08:06;;;;;;;1.17;1.07;;;16.00;99.90;;;;;;4937091;29;20743;-60
2023/07/31 04:10:33;;;;;;;1.03;1.03;;;16.00;99.90;;;;;;4939427;29;20177;-60
2023/07/31 04:12:59;;;;;;;1.33;1.00;;;16.00;99.90;;;;;;4938202;29;20185;-59
2023/07/31 04:15:25;;;;;;;1.37;1.10;;;16.00;99.90;;;;;;4937695;29;20470;-59
2023/07/31 04:17:51;;;;;;;1.30;1.20;;;16.10;99.90;;;;;;4939136;29;20851;-59
2023/07/31 04:20:17;;;;;;;0.93;0.93;;;16.10;99.90;;;;;;4939145;29;20193;-60
2023/07/31 04:22:42;;;;;;;1.00;0.90;;;16.20;99.90;;;;;;4939459;29;20539;-60
2023/07/31 04:25:08;;;;;;;2.43;1.10;;;16.30;99.90;;;;;;4938754;29;20560;-60
2023/07/31 04:27:34;;;;;;;1.17;1.10;;;16.30;99.90;;;;;;4939257;29;20657;-60
2023/07/31 04:30:00;;;;;;;1.00;1.00;;;16.40;99.90;;;;;;4939063;29;20406;-60
2023/07/31 04:32:25;;;;;;;0.77;0.77;;;16.50;99.90;;;;;;4938364;29;20225;-60
2023/07/31 04:34:51;;;;;;;3.33;1.37;;;16.60;99.90;;;;;;4936930;29;20240;-59
2023/07/31 04:37:16;;;;;;;2.13;1.33;;;16.60;99.90;;;;;;4938607;29;20179;-60
2023/07/31 04:39:42;;;;;;;1.00;0.93;;;16.70;99.90;;;;;;4937435;29;20218;-60
2023/07/31 04:42:07;;;;;;;1.30;1.20;;;16.80;99.90;;;;;;4938827;29;20186;-60
2023/07/31 04:44:33;;;;;;;0.93;0.93;;;16.90;99.90;;;;;;4937887;29;20808;-60
2023/07/31 04:46:59;;;;;;;0.73;0.73;;;17.00;99.90;;;;;;4938555;29;20172;-60
2023/07/31 04:49:24;;;;;;;1.00;1.00;;;17.20;99.90;;;;;;4938645;29;20270;-60
2023/07/31 04:51:50;;;;;;;0.83;0.83;;;17.30;99.90;;;;;;4938495;29;20518;-60
2023/07/31 04:54:16;;;;;;;2.47;1.00;;;17.40;99.90;;;;;;4937888;29;20551;-60
2023/07/31 04:56:41;;;;;;;0.70;0.70;;;17.50;99.90;;;;;;4938294;29;20188;-60
2023/07/31 04:59:07;;;;;;;1.70;1.10;;;17.60;99.90;;;;;;4938466;29;20211;-60
2023/07/31 05:01:33;;;;;;;1.03;0.90;;;17.70;99.90;;;;;;4938243;29;20180;-60
2023/07/31 05:03:58;;;;;;;2.10;1.77;;;17.80;99.90;;;;;;4938112;29;20631;-61
2023/07/31 05:06:24;;;;;;;1.03;0.97;;;17.80;99.90;;;;;;4938016;29;20700;-60
2023/07/31 05:08:49;;;;;;;1.80;1.30;;;17.90;99.90;;;;;;4937377;29;20192;-60
2023/07/31 05:11:15;;;;;;;0.83;0.83;;;17.90;99.90;;;;;;4937932;29;20196;-60
2023/07/31 05:13:41;;;;;;;0.67;0.67;;;18.00;99.90;;;;;;4937722;29;20184;-60
2023/07/31 05:16:06;;;;;;;1.67;1.57;;;18.10;99.90;;;;;;4937614;29;20202;-60
2023/07/31 05:18:32;;;;;;;1.77;0.80;;;18.10;99.90;;;;;;4937571;29;20205;-60
2023/07/31 05:20:57;;;;;;;1.33;0.90;;;18.10;99.90;;;;;;4936017;29;20185;-59
2023/07/31 05:23:23;;;;;;;1.03;0.93;;;18.10;99.90;;;;;;4936175;29;20612;-60
2023/07/31 05:25:49;;;;;;;1.00;1.00;;;18.10;99.90;;;;;;4936419;29;20201;-60
2023/07/31 05:28:14;;;;;;;1.70;1.00;;;18.10;99.90;;;;;;4937883;29;20194;-60
2023/07/31 05:30:40;;;;;;;1.13;1.13;;;18.20;99.90;;;;;;4936523;29;20260;-59
2023/07/31 05:33:05;;;;;;;1.33;0.80;;;18.20;99.90;;;;;;4937824;29;20519;-59
2023/07/31 05:35:31;;;;;;;1.30;1.20;;;18.20;99.90;;;;;;4935792;29;20692;-59
2023/07/31 05:37:57;;;;;;;1.27;1.27;;;18.20;99.90;;;;;;4937821;29;20280;-62
2023/07/31 05:40:22;;;;;;;1.13;1.10;;;18.30;99.90;;;;;;4937581;29;20188;-61
2023/07/31 05:42:48;;;;;;;0.83;0.80;;;18.40;99.90;;;;;;4938291;29;20185;-60
2023/07/31 05:45:13;;;;;;;1.07;1.00;;;18.40;99.90;;;;;;4936201;29;20200;-60
2023/07/31 05:47:39;;;;;;;0.93;0.93;;;18.50;99.90;;;;;;4918465;29;20182;-60
2023/07/31 05:50:05;;;;;;;1.20;1.10;;;18.60;99.90;;;;;;4918430;29;20226;-60
2023/07/31 05:52:31;;;;;;;1.03;0.90;;;18.70;99.90;;;;;;4918702;29;20821;-59
2023/07/31 05:54:57;;;;;;;1.20;1.00;;;18.80;99.90;;;;;;4934346;29;20291;-60
2023/07/31 05:57:22;;;;;;;1.10;1.10;;;18.90;99.90;;;;;;4936585;29;20425;-60
2023/07/31 05:59:48;;;;;;;1.30;1.20;;;18.90;99.90;;;;;;4937474;29;20577;-61
2023/07/31 06:02:14;;;;;;;0.77;0.77;;;19.00;99.90;;;;;;4937032;29;20583;-60
2023/07/31 06:04:39;;;;;;;2.20;0.80;;;19.10;99.90;;;;;;4931716;29;20200;-60
2023/07/31 06:07:05;;;;;;;1.30;1.20;;;19.10;99.90;;;;;;4929686;29;20246;-64
2023/07/31 06:09:31;;;;;;;0.80;0.80;;;19.20;99.90;;;;;;4931870;29;20200;-64
2023/07/31 06:11:56;;;;;;;1.13;0.80;;;19.30;99.90;;;;;;4931988;29;20779;-62
2023/07/31 06:14:22;;;;;;;1.10;1.00;;;19.30;99.90;;;;;;4927610;29;20190;-60
2023/07/31 06:16:48;;;;;;;1.80;0.77;;;19.30;99.90;;;;;;4916998;29;20588;-61
2023/07/31 06:19:13;;;;;;;1.83;1.03;;;19.40;99.90;;;;;;4930121;29;20223;-60
2023/07/31 06:21:39;;;;;;;1.20;1.13;;;19.50;99.90;;;;;;4919545;29;20177;-64
2023/07/31 06:24:05;;;;;;;1.10;1.10;;;19.50;99.90;;;;;;4935781;29;20189;-63
2023/07/31 06:26:31;;;;;;;3.37;1.60;;;19.70;99.90;;;;;;4931530;29;20245;-62
2023/07/31 06:28:57;;;;;;;0.87;0.87;;;19.90;99.90;;;;;;4934400;29;20981;-61
2023/07/31 06:31:22;;;;;;;0.87;0.70;;;20.10;99.90;;;;;;4933036;29;20400;-61
2023/07/31 06:33:52;;;;;;;0.70;0.70;;;20.20;99.90;;;;;;4931584;29;20178;-64
2023/07/31 06:36:18;;;;;;;1.70;1.60;;;20.40;99.90;;;;;;4926224;29;20576;-63
2023/07/31 06:38:43;;;;;;;1.67;1.57;;;20.60;99.90;;;;;;4929995;29;20465;-65
2023/07/31 06:41:10;;;;;;;0.93;0.93;;;20.70;99.90;;;;;;4930478;29;20181;-65
2023/07/31 06:43:36;;;;;;;0.67;0.67;;;20.80;99.90;;;;;;4931615;29;20184;-60
2023/07/31 06:46:06;;;;;;;1.17;1.10;;;20.90;99.90;;;;;;4931278;29;20473;-62
2023/07/31 06:48:33;;;;;;;0.80;0.80;;;20.90;99.90;;;;;;4930667;29;20398;-61
2023/07/31 06:50:58;;;;;;;0.60;0.60;;;21.00;99.90;;;;;;4933631;29;20963;-61
2023/07/31 06:53:24;;;;;;;2.23;1.20;;;21.20;99.90;;;;;;4934906;29;20519;-61
2023/07/31 06:55:51;;;;;;;1.37;0.80;;;21.20;99.70;;;;;;4936062;29;20244;-61
2023/07/31 06:58:17;;;;;;;0.90;0.90;;;21.20;99.50;;;;;;4933305;29;20211;-61
2023/07/31 07:00:44;;;;;;;0.63;0.63;;;21.30;99.60;;;;;;4926195;29;20440;-61
2023/07/31 07:03:10;;;;;;;0.90;0.90;;;21.50;99.80;;;;;;4935140;29;20472;-61
2023/07/31 07:05:36;;;;;;;1.20;0.80;;;21.60;99.80;;;;;;4935059;29;20571;-61
2023/07/31 07:08:01;;;;;;;0.73;0.73;;;21.80;98.60;;;;;;4934019;29;20194;-61
2023/07/31 07:10:28;;;;;;;0.77;0.73;;;21.80;98.50;;;;;;4934969;29;20184;-60
2023/07/31 07:12:55;;;;;;;0.83;0.77;;;21.90;97.90;;;;;;4934626;29;20209;-59
2023/07/31 07:15:20;;;;;;;1.83;1.30;;;22.00;97.50;;;;;;4934793;29;20404;-60
2023/07/31 07:17:46;;;;;;;1.30;1.10;;;22.20;97.60;;;;;;4934058;29;20417;-62
2023/07/31 07:20:12;;;;;;;1.40;1.13;;;22.40;97.10;;;;;;4934216;29;20184;-61
2023/07/31 07:22:38;;;;;;;1.37;0.77;;;22.50;97.00;;;;;;4934502;29;20193;-62
2023/07/31 07:25:04;;;;;;;2.13;1.43;;;22.60;96.40;;;;;;4933966;29;20488;-62
2023/07/31 07:27:30;;;;;;;0.70;0.70;;;22.70;96.00;;;;;;4935160;29;20174;-62
2023/07/31 07:29:55;;;;;;;1.00;0.90;;;22.90;95.90;;;;;;4934684;29;20429;-61
2023/07/31 07:32:21;;;;;;;0.63;0.63;;;23.10;95.70;;;;;;4935785;29;20182;-61
2023/07/31 07:34:48;;;;;;;3.47;0.90;;;23.30;95.50;;;;;;4935366;29;20291;-61
2023/07/31 07:37:14;;;;;;;2.00;0.93;;;23.40;94.90;;;;;;4934620;29;20178;-60
2023/07/31 07:39:39;;;;;;;1.83;1.53;;;23.50;94.70;;;;;;4935021;29;20440;-60
2023/07/31 07:42:05;;;;;;;1.27;0.87;;;23.60;94.40;;;;;;4934639;29;20209;-61
2023/07/31 07:44:31;;;;;;;0.70;0.70;;;23.80;94.50;;;;;;4939095;29;20206;-61
2023/07/31 07:46:57;;;;;;;1.47;1.37;;;23.90;93.80;;;;;;4939165;29;20181;-60
2023/07/31 07:49:22;;;;;;;1.83;1.27;;;24.00;93.60;;;;;;4939954;29;20384;-61
2023/07/31 07:51:49;;;;;;;1.07;1.03;;;24.00;93.90;;;;;;4939482;29;20181;-61
2023/07/31 07:54:16;;;;;;;0.87;0.87;;;24.00;93.10;;;;;;4937013;29;20186;-61
2023/07/31 07:56:42;;;;;;;1.37;1.10;;;24.00;93.30;;;;;;4939104;29;20453;-60
2023/07/31 07:59:08;;;;;;;1.20;1.10;;;24.40;93.40;;;;;;4937759;29;20435;-62
2023/07/31 08:01:34;;;;;;;1.23;0.97;;;25.10;92.70;;;;;;4939298;29;20452;-61
2023/07/31 08:03:59;;;;;;;1.03;0.97;;;25.70;91.80;;;;;;4938913;29;20177;-63
2023/07/31 08:06:25;;;;;;;1.43;1.13;;;26.40;91.10;;;;;;4938819;29;20217;-61
2023/07/31 08:08:51;;;;;;;1.27;1.10;;;26.60;90.20;;;;;;4938361;29;20209;-63
2023/07/31 08:11:16;;;;;;;1.40;1.23;;;26.60;88.30;;;;;;4939089;29;20188;-61
2023/07/31 08:13:42;;;;;;;1.37;1.10;;;26.60;88.60;;;;;;4938658;29;20249;-61
2023/07/31 08:16:08;;;;;;;1.37;1.27;;;26.60;88.10;;;;;;4939091;29;20665;-61
2023/07/31 08:18:34;;;;;;;1.60;1.50;;;26.90;87.50;;;;;;4938944;29;20292;-61
2023/07/31 08:21:01;;;;;;;1.13;1.03;;;27.20;87.20;;;;;;4938586;29;20417;-61
2023/07/31 08:23:26;;;;;;;1.33;1.23;;;27.80;87.20;;;;;;4936539;29;20185;-62
2023/07/31 08:25:52;;;;;;;5.83;1.30;;;28.20;84.10;;;;;;4938639;29;20978;-61
2023/07/31 08:28:17;;;;;;;0.97;0.97;;;28.30;82.80;;;;;;4938906;29;20644;-61
2023/07/31 08:30:43;;;;;;;0.90;0.90;;;28.50;81.50;;;;;;4938833;29;20177;-62
2023/07/31 08:33:09;;;;;;;1.20;1.10;;;28.60;80.60;;;;;;4936942;29;20186;-61
2023/07/31 08:35:36;;;;;;;2.10;1.17;;;28.60;80.40;;;;;;4937919;29;20214;-61
2023/07/31 08:38:01;;;;;;;1.30;1.20;;;28.60;80.50;;;;;;4938519;29;20197;-61
2023/07/31 08:40:28;;;;;;;1.30;1.07;;;28.50;80.40;;;;;;4938574;29;20484;-61
2023/07/31 08:42:56;;;;;;;0.90;0.83;;;28.50;80.60;;;;;;4938480;29;20381;-61
2023/07/31 08:45:22;;;;;;;1.20;1.10;;;28.70;79.50;;;;;;4937956;29;20482;-61
2023/07/31 08:47:49;;;;;;;1.40;1.30;;;28.80;79.90;;;;;;4937876;29;20440;-61
2023/07/31 08:50:17;;;;;;;2.20;1.13;;;28.80;80.10;;;;;;4938201;29;20504;-61
2023/07/31 08:52:43;;;;;;;1.60;1.20;;;28.80;79.20;;;;;;4938173;29;20441;-60
2023/07/31 08:55:09;;;;;;;1.20;1.10;;;28.90;79.50;;;;;;4936811;29;20437;-61
2023/07/31 08:57:37;;;;;;;1.37;1.27;;;29.30;78.60;;;;;;4938197;29;20433;-62
2023/07/31 09:00:05;;;;;;;1.07;1.00;;;29.70;78.30;;;;;;4938130;29;20899;-61
2023/07/31 09:02:55;;;;;;;1.13;1.03;;;29.80;76.30;;;;;;4937486;29;20429;-62
2023/07/31 09:05:22;;;;;;;2.07;1.30;;;29.40;75.70;;;;;;4929189;29;20445;-63
2023/07/31 09:07:50;;;;;;;1.90;1.17;;;28.90;77.10;;;;;;4937960;29;20439;-61
2023/07/31 09:10:15;;;;;;;2.50;1.40;;;28.60;78.20;;;;;;4937877;29;20417;-61
2023/07/31 09:12:42;;;;;;;2.10;1.30;;;28.40;79.10;;;;;;4937911;29;20417;-62
2023/07/31 09:15:08;;;;;;;1.33;1.20;;;28.30;79.20;;;;;;4937265;29;20197;-61
2023/07/31 09:17:38;;;;;;;1.60;1.50;;;28.40;79.10;;;;;;4937399;29;20444;-61
2023/07/31 09:20:18;;;;;;;2.13;1.43;;;28.70;80.30;;;;;;4937575;29;20496;-61
2023/07/31 09:22:44;;;;;;;0.90;0.90;;;29.10;78.90;;;;;;4937735;29;20843;-62
2023/07/31 09:25:21;;;;;;;1.93;1.00;;;29.60;77.70;;;;;;4937186;29;20527;-61
2023/07/31 09:27:58;;;;;;;1.10;0.90;;;29.70;76.70;;;;;;4937228;29;20496;-61
2023/07/31 09:30:23;;;;;;;1.37;1.27;;;29.70;75.70;;;;;;4937458;29;20878;-61
2023/07/31 09:32:50;;;;;;;0.90;0.83;;;29.50;75.80;;;;;;4936894;29;20437;-60
2023/07/31 09:35:32;;;;;;;1.47;1.27;;;29.20;77.40;;;;;;4936738;29;20197;-61
2023/07/31 09:38:19;;;;;;;1.27;1.23;;;28.70;77.60;;;;;;4937194;29;20517;-60
2023/07/31 09:40:47;;;;;;;1.47;1.37;;;28.50;77.90;;;;;;4917845;29;20423;-61
2023/07/31 09:43:17;;;;;;;1.73;1.60;;;28.40;80.00;;;;;;4918067;29;20758;-61
2023/07/31 09:45:44;;;;;;;1.23;1.13;;;28.80;80.00;;;;;;4916756;29;20463;-61
2023/07/31 09:48:12;;;;;;;1.27;1.20;;;28.90;77.80;;;;;;4929414;29;20448;-61
2023/07/31 09:50:41;;;;;;;2.07;1.13;;;28.80;77.50;;;;;;4937446;29;20504;-61
2023/07/31 09:53:08;;;;;;;1.40;0.90;;;28.60;77.50;;;;;;4937591;29;20405;-60
2023/07/31 09:55:34;;;;;;;1.37;1.27;;;28.40;77.00;;;;;;4937202;29;20437;-61
2023/07/31 09:58:04;;;;;;;1.07;1.00;;;27.90;78.10;;;;;;4937599;29;20417;-61
2023/07/31 10:00:31;;;;;;;2.47;1.40;;;27.60;79.70;;;;;;4937149;29;20951;-60
2023/07/31 10:03:00;;;;;;;1.40;1.30;;;27.50;80.40;;;;;;4937522;29;20417;-61
2023/07/31 10:05:35;;;;;;;2.10;1.23;;;27.30;80.20;;;;;;4936598;29;20979;-61
2023/07/31 10:08:02;;;;;;;2.23;1.27;;;27.50;81.80;;;;;;4937625;29;20405;-59
2023/07/31 10:10:28;;;;;;;1.80;1.17;;;27.70;80.70;;;;;;4937266;29;20548;-61
2023/07/31 10:12:56;;;;;;;2.20;1.30;;;27.60;79.80;;;;;;4935858;29;20529;-61
2023/07/31 10:15:22;;;;;;;0.83;0.83;;;27.30;81.00;;;;;;4936380;29;20437;-60
2023/07/31 10:17:49;;;;;;;2.70;0.87;;;26.90;81.70;;;;;;4937018;29;20406;-61
2023/07/31 10:20:18;;;;;;;0.97;0.87;;;26.40;83.20;;;;;;4937296;29;20417;-60
2023/07/31 10:22:46;;;;;;;1.20;1.10;;;26.30;83.70;;;;;;4937178;29;20448;-60
2023/07/31 10:25:12;;;;;;;1.83;1.20;;;26.30;84.30;;;;;;4936652;29;20954;-60
2023/07/31 10:27:39;;;;;;;1.57;1.17;;;26.40;86.10;;;;;;4937161;29;20406;-61
2023/07/31 10:30:07;;;;;;;1.00;1.00;;;26.80;83.60;;;;;;4936614;29;20433;-61
2023/07/31 10:32:34;;;;;;;1.13;1.03;;;27.10;84.70;;;;;;4937020;29;20848;-61
2023/07/31 10:35:03;;;;;;;1.20;1.10;;;27.40;82.50;;;;;;4936398;29;20437;-60
2023/07/31 10:37:35;;;;;;;2.87;1.40;;;27.80;85.10;;;;;;4936967;29;20425;-61
2023/07/31 10:40:04;;;;;;;1.50;1.40;;;28.30;81.10;;;;;;4936641;29;20473;-60
2023/07/31 10:42:32;;;;;;;1.17;1.10;;;28.30;80.10;;;;;;4936855;29;20769;-61
2023/07/31 10:45:03;;;;;;;1.47;1.37;;;28.70;80.20;;;;;;4935909;29;20444;-61
2023/07/31 10:47:29;;;;;;;0.93;0.93;;;29.10;77.60;;;;;;4936114;29;20429;-61
2023/07/31 10:50:18;;;;;;;1.13;1.10;;;29.10;77.50;;;;;;4936618;29;20406;-60
2023/07/31 10:52:49;;;;;;;1.43;1.33;;;29.10;78.10;;;;;;4936463;29;20178;-61
2023/07/31 10:55:26;;;;;;;1.43;1.00;;;29.50;77.10;;;;;;4936050;29;20425;-61
2023/07/31 10:57:53;;;;;;;3.47;1.60;;;29.90;77.10;;;;;;4936630;29;20402;-61
2023/07/31 11:00:28;;;;;;;1.67;1.00;;;29.90;75.70;;;;;;4936318;29;20461;-61
2023/07/31 11:03:01;;;;;;;1.17;1.10;;;30.00;73.80;;;;;;4936534;29;20407;-61
2023/07/31 11:05:45;;;;;;;1.17;1.07;;;29.60;75.40;;;;;;4935812;29;20425;-60
2023/07/31 11:08:30;;;;;;;1.00;1.00;;;29.50;77.10;;;;;;4936490;29;20449;-60
2023/07/31 11:11:02;;;;;;;1.43;1.33;;;29.70;75.80;;;;;;4936270;29;20486;-61
2023/07/31 11:13:32;;;;;;;1.17;1.10;;;30.10;74.90;;;;;;4935591;29;20425;-61
2023/07/31 11:15:58;;;;;;;1.83;1.30;;;30.40;74.40;;;;;;4936086;29;20429;-60
2023/07/31 11:18:24;;;;;;;1.17;1.13;;;30.40;74.30;;;;;;4935727;29;21067;-61
2023/07/31 11:20:50;;;;;;;1.20;1.10;;;30.20;74.00;;;;;;4934942;29;20170;-61
2023/07/31 11:23:18;;;;;;;1.30;1.20;;;29.80;73.10;;;;;;4936021;29;20496;-60
2023/07/31 11:25:45;;;;;;;1.33;1.23;;;29.30;75.50;;;;;;4935968;29;20201;-61
2023/07/31 11:28:15;;;;;;;1.43;1.13;;;29.10;75.10;;;;;;4936249;29;20418;-60
2023/07/31 11:30:42;;;;;;;1.53;1.43;;;28.70;75.30;;;;;;4936044;29;20427;-60
2023/07/31 11:33:09;;;;;;;2.00;1.00;;;28.30;76.10;;;;;;4934847;29;20420;-59
2023/07/31 11:35:44;;;;;;;1.70;1.60;;;27.90;77.20;;;;;;4935786;29;20425;-60
2023/07/31 11:38:24;;;;;;;1.27;1.10;;;27.80;78.10;;;;;;4935767;29;20508;-60
2023/07/31 11:40:49;;;;;;;1.40;1.30;;;27.50;77.60;;;;;;4934860;29;20421;-60
2023/07/31 11:43:17;;;;;;;1.30;1.20;;;27.20;78.20;;;;;;4935923;29;20425;-60
2023/07/31 11:45:48;;;;;;;1.53;1.23;;;26.90;79.30;;;;;;4935665;29;20197;-60
2023/07/31 11:48:24;;;;;;;0.97;0.90;;;26.60;80.00;;;;;;4936146;29;20471;-60
2023/07/31 11:50:56;;;;;;;0.97;0.90;;;26.20;81.00;;;;;;4936178;29;20429;-61
2023/07/31 11:53:42;;;;;;;1.20;1.10;;;25.90;82.30;;;;;;4935358;29;20427;-60
2023/07/31 11:56:11;;;;;;;1.60;1.50;;;25.60;83.30;;;;;;4935997;29;20443;-60
2023/07/31 11:58:38;;;;;;;1.77;1.67;;;25.40;84.50;;;;;;4935984;29;20522;-60
2023/07/31 12:01:05;;;;;;;1.40;1.30;;;25.20;86.10;;;;;;4936325;29;20396;-60
2023/07/31 12:03:32;;;;;;;1.30;1.30;;;25.20;86.10;;;;;;4935520;29;20420;-60
2023/07/31 12:05:59;;;;;;;1.83;1.20;;;25.30;87.30;;;;;;4935580;29;20445;-60
2023/07/31 12:08:25;;;;;;;1.53;1.23;;;25.30;86.20;;;;;;4935618;29;20426;-60
2023/07/31 12:10:51;;;;;;;1.50;1.30;;;25.30;85.80;;;;;;4936030;29;20407;-60
2023/07/31 12:13:26;;;;;;;1.10;1.00;;;25.30;86.20;;;;;;4935376;29;20440;-62
2023/07/31 12:15:59;;;;;;;1.47;1.37;;;25.50;86.90;;;;;;4925503;29;20561;-60
2023/07/31 12:18:26;;;;;;;1.17;1.07;;;25.50;86.50;;;;;;4935695;29;20812;-59
2023/07/31 12:20:57;;;;;;;1.60;1.50;;;25.60;85.40;;;;;;4935618;29;20385;-60
2023/07/31 12:23:29;;;;;;;1.60;1.33;;;25.50;85.40;;;;;;4933977;29;20386;-60
2023/07/31 12:26:05;;;;;;;1.47;1.37;;;25.50;85.30;;;;;;4935797;29;20434;-60
2023/07/31 12:28:36;;;;;;;1.50;0.90;;;25.40;86.10;;;;;;4936346;29;20429;-60
2023/07/31 12:31:02;;;;;;;1.87;1.77;;;25.30;86.30;;;;;;4939209;29;20932;-59
2023/07/31 12:33:36;;;;;;;1.40;1.20;;;25.10;86.80;;;;;;4938977;29;20441;-60
2023/07/31 12:36:03;;;;;;;4.03;1.70;;;25.00;87.00;;;;;;4939034;29;20445;-60
2023/07/31 12:38:29;;;;;;;1.93;1.10;;;25.00;87.90;;;;;;4938507;29;20463;-60
2023/07/31 12:40:55;;;;;;;1.17;1.07;;;25.00;88.20;;;;;;4938933;29;20459;-60
2023/07/31 12:43:20;;;;;;;1.83;1.10;;;25.10;88.90;;;;;;4938745;29;20444;-60
2023/07/31 12:45:47;;;;;;;1.73;1.50;;;25.20;88.50;;;;;;4938606;29;20221;-60
2023/07/31 12:48:13;;;;;;;1.53;1.43;;;25.30;88.50;;;;;;4938927;29;20190;-60
2023/07/31 12:50:39;;;;;;;1.60;1.50;;;25.50;88.80;;;;;;4938842;29;20504;-60
2023/07/31 12:53:05;;;;;;;1.00;1.00;;;25.60;88.80;;;;;;4938097;29;20210;-61
2023/07/31 12:55:32;;;;;;;2.33;1.50;;;25.50;87.30;;;;;;4936668;29;20291;-61
2023/07/31 12:57:58;;;;;;;1.20;1.20;;;25.50;86.90;;;;;;4938068;29;20458;-60
2023/07/31 13:00:23;;;;;;;1.53;1.17;;;25.20;86.90;;;;;;4938240;29;20816;-60
2023/07/31 13:02:49;;;;;;;2.10;1.90;;;25.00;87.50;;;;;;4938012;29;20176;-60
2023/07/31 13:05:15;;;;;;;1.50;1.33;;;24.90;88.70;;;;;;4937532;29;20197;-60
2023/07/31 13:07:41;;;;;;;1.20;1.10;;;24.90;88.70;;;;;;4937732;29;20344;-60
2023/07/31 13:10:07;;;;;;;2.10;1.23;;;24.80;88.70;;;;;;4938085;29;20178;-60
2023/07/31 13:12:33;;;;;;;1.47;1.47;;;24.80;89.00;;;;;;4937874;29;20425;-61
2023/07/31 13:14:59;;;;;;;1.43;1.20;;;24.80;90.10;;;;;;4937658;29;20493;-60
2023/07/31 13:17:24;;;;;;;1.13;1.03;;;24.80;89.80;;;;;;4936535;29;20907;-60
2023/07/31 13:19:50;;;;;;;1.53;1.43;;;24.80;90.10;;;;;;4937796;29;20202;-60
2023/07/31 13:22:15;;;;;;;1.30;1.03;;;24.80;90.00;;;;;;4936398;29;20178;-61
2023/07/31 13:24:41;;;;;;;1.30;1.17;;;24.80;88.70;;;;;;4937667;29;20204;-60
2023/07/31 13:27:07;;;;;;;1.40;1.30;;;24.70;88.70;;;;;;4937463;29;20186;-61
2023/07/31 13:29:33;;;;;;;1.20;1.10;;;24.70;88.40;;;;;;4937989;29;20639;-61
2023/07/31 13:31:58;;;;;;;1.50;1.27;;;24.70;88.20;;;;;;4937596;29;20268;-61
2023/07/31 13:34:24;;;;;;;1.43;1.13;;;24.70;88.70;;;;;;4937053;29;20245;-60
2023/07/31 13:36:49;;;;;;;1.20;1.10;;;24.80;88.80;;;;;;4937318;29;20268;-61
2023/07/31 13:39:15;;;;;;;1.77;1.67;;;24.80;89.20;;;;;;4937247;29;20201;-60
2023/07/31 13:41:41;;;;;;;2.00;1.13;;;24.80;88.70;;;;;;4937020;29;20700;-60
2023/07/31 13:44:07;;;;;;;1.30;1.20;;;24.90;88.40;;;;;;4937000;29;20182;-61
2023/07/31 13:46:32;;;;;;;1.90;1.30;;;25.00;89.10;;;;;;4937327;29;20199;-60
2023/07/31 13:48:59;;;;;;;1.17;1.17;;;25.30;88.80;;;;;;4937632;29;20182;-61
2023/07/31 13:51:25;;;;;;;1.17;1.07;;;25.50;90.00;;;;;;4937143;29;20192;-60
2023/07/31 13:53:51;;;;;;;1.20;1.10;;;25.60;87.50;;;;;;4936831;29;20507;-61
2023/07/31 13:56:16;;;;;;;1.53;1.43;;;25.80;86.70;;;;;;4936807;29;20512;-61
2023/07/31 13:58:42;;;;;;;2.20;1.47;;;25.80;87.00;;;;;;4936954;29;20211;-61
2023/07/31 14:01:08;;;;;;;3.27;1.30;;;25.90;87.00;;;;;;4936993;29;20192;-61
2023/07/31 14:03:34;;;;;;;1.40;1.30;;;26.00;88.10;;;;;;4936807;29;20540;-60
2023/07/31 14:06:00;;;;;;;2.60;1.70;;;26.00;88.20;;;;;;4936771;29;20437;-60
2023/07/31 14:08:25;;;;;;;2.57;1.60;;;26.00;89.50;;;;;;4936624;29;20191;-60
2023/07/31 14:10:51;;;;;;;1.47;1.37;;;26.10;87.90;;;;;;4936925;29;20208;-62
2023/07/31 14:13:16;;;;;;;1.57;1.20;;;26.20;88.20;;;;;;4937414;29;20512;-60
2023/07/31 14:15:43;;;;;;;2.73;1.67;;;26.30;88.10;;;;;;4936456;29;20283;-61
2023/07/31 14:18:09;;;;;;;1.17;1.07;;;26.30;87.70;;;;;;4935498;29;20191;-60
2023/07/31 14:20:34;;;;;;;1.33;1.23;;;26.20;85.40;;;;;;4935400;29;20402;-60
2023/07/31 14:23:01;;;;;;;1.63;1.30;;;26.10;84.70;;;;;;4936024;29;20425;-59
2023/07/31 14:25:26;;;;;;;1.60;1.40;;;26.00;85.50;;;;;;4936097;29;20366;-60
2023/07/31 14:27:52;;;;;;;1.80;1.70;;;26.00;85.70;;;;;;4936507;29;20605;-59
2023/07/31 14:30:18;;;;;;;1.70;1.20;;;25.90;86.00;;;;;;4936393;29;20588;-60
2023/07/31 14:32:44;;;;;;;1.70;1.27;;;25.90;86.80;;;;;;4936544;29;20544;-61
2023/07/31 14:35:09;;;;;;;1.87;1.67;;;25.80;87.70;;;;;;4936195;29;20441;-60
2023/07/31 14:37:44;;;;;;;1.47;1.37;;;25.90;87.60;;;;;;4936487;29;20191;-61
2023/07/31 14:40:11;;;;;;;1.40;1.30;;;25.90;89.10;;;;;;4936491;29;20216;-62
2023/07/31 14:42:37;;;;;;;1.20;1.20;;;26.00;88.40;;;;;;4936318;29;20397;-61
2023/07/31 14:45:07;;;;;;;1.30;1.20;;;26.10;88.10;;;;;;4935839;29;20437;-61
2023/07/31 14:47:33;;;;;;;1.57;1.47;;;26.10;88.30;;;;;;4935075;29;20394;-61
2023/07/31 14:49:59;;;;;;;1.40;1.20;;;26.10;87.60;;;;;;4936462;29;20432;-61
2023/07/31 14:52:25;;;;;;;1.60;1.50;;;26.00;87.50;;;;;;4933785;29;20192;-60
2023/07/31 14:54:52;;;;;;;1.47;1.23;;;26.00;87.90;;;;;;4935757;29;20438;-60
2023/07/31 14:57:18;;;;;;;1.90;1.07;;;26.00;89.80;;;;;;4936114;29;20405;-61
2023/07/31 14:59:44;;;;;;;1.30;1.20;;;26.00;87.50;;;;;;4935817;29;20435;-59
2023/07/31 15:02:10;;;;;;;2.00;1.43;;;26.00;87.10;;;;;;4935982;29;20269;-61
2023/07/31 15:04:36;;;;;;;2.80;2.40;;;26.00;87.80;;;;;;4935487;29;20767;-60
2023/07/31 15:07:03;;;;;;;1.97;1.77;;;26.10;88.00;;;;;;4935222;29;20450;-61
2023/07/31 15:09:28;;;;;;;1.57;1.47;;;26.10;88.30;;;;;;4936082;29;20398;-61
2023/07/31 15:11:55;;;;;;;1.60;1.37;;;26.10;87.70;;;;;;4935764;29;20436;-61
2023/07/31 15:14:21;;;;;;;1.07;1.03;;;26.00;87.80;;;;;;4935681;29;20179;-60
2023/07/31 15:16:46;;;;;;;1.40;1.30;;;25.90;88.30;;;;;;4935809;29;20396;-61
2023/07/31 15:19:12;;;;;;;1.20;1.10;;;25.80;88.60;;;;;;4935694;29;20205;-62
2023/07/31 15:21:38;;;;;;;1.40;1.20;;;25.80;89.00;;;;;;4935405;29;20170;-61
2023/07/31 15:24:04;;;;;;;1.80;1.30;;;25.90;88.50;;;;;;4935707;29;20255;-61
2023/07/31 15:26:29;;;;;;;1.10;1.10;;;25.90;88.10;;;;;;4935869;29;20443;-61
2023/07/31 15:29:01;;;;;;;1.73;1.63;;;25.80;88.10;;;;;;4935428;29;20588;-61
2023/07/31 15:31:27;;;;;;;1.70;1.60;;;25.80;86.80;;;;;;4935407;29;20266;-60
2023/07/31 15:33:53;;;;;;;1.20;1.10;;;25.80;87.50;;;;;;4935297;29;20435;-60
2023/07/31 15:36:19;;;;;;;1.30;1.20;;;25.90;87.90;;;;;;4935677;29;20207;-60
2023/07/31 15:38:45;;;;;;;1.20;1.10;;;25.90;89.30;;;;;;4935333;29;20796;-61
2023/07/31 15:41:11;;;;;;;1.60;1.30;;;26.00;88.70;;;;;;4935588;29;20253;-60
2023/07/31 15:43:37;;;;;;;1.13;1.03;;;26.10;87.20;;;;;;4935315;29;20398;-60
2023/07/31 15:46:02;;;;;;;1.27;0.93;;;26.10;87.10;;;;;;4935557;29;20207;-60
2023/07/31 15:48:28;;;;;;;1.30;1.20;;;26.10;87.00;;;;;;4935269;29;20197;-60
2023/07/31 15:50:54;;;;;;;1.30;1.20;;;26.00;86.10;;;;;;4935741;29;20195;-60
2023/07/31 15:53:19;;;;;;;2.07;1.50;;;25.90;88.40;;;;;;4935234;29;20187;-61
2023/07/31 15:55:45;;;;;;;1.43;1.00;;;25.90;88.00;;;;;;4935586;29;20216;-60
2023/07/31 15:58:10;;;;;;;1.40;1.10;;;25.80;85.90;;;;;;4935618;29;20189;-60
2023/07/31 16:00:36;;;;;;;1.80;1.53;;;25.70;86.20;;;;;;4935815;29;20190;-61
2023/07/31 16:03:01;;;;;;;1.63;1.40;;;25.60;86.70;;;;;;4936175;29;20212;-62
2023/07/31 16:05:27;;;;;;;1.23;1.00;;;25.50;86.50;;;;;;4937803;29;20190;-61
2023/07/31 16:07:53;;;;;;;1.20;1.10;;;25.40;87.00;;;;;;4939416;29;20201;-61
2023/07/31 16:10:18;;;;;;;0.97;0.97;;;25.30;87.50;;;;;;4939018;29;20581;-60
2023/07/31 16:12:44;;;;;;;1.37;1.17;;;25.10;87.70;;;;;;4939458;29;20288;-60
2023/07/31 16:15:09;;;;;;;1.43;1.33;;;25.00;88.90;;;;;;4939025;29;20205;-60
2023/07/31 16:17:35;;;;;;;1.77;1.27;;;25.00;89.70;;;;;;4939503;29;20177;-60
2023/07/31 16:20:01;;;;;;;1.13;1.03;;;25.00;90.50;;;;;;4939361;29;20202;-60
2023/07/31 16:22:27;;;;;;;1.60;1.50;;;25.10;90.60;;;;;;4939360;29;20260;-60
2023/07/31 16:24:52;;;;;;;2.20;1.50;;;25.10;90.30;;;;;;4937380;29;20205;-60
2023/07/31 16:27:19;;;;;;;3.13;1.87;;;25.10;89.30;;;;;;4939363;29;20388;-60
2023/07/31 16:29:45;;;;;;;1.47;1.30;;;25.10;89.80;;;;;;4939106;29;20289;-60
2023/07/31 16:32:11;;;;;;;1.77;1.60;;;25.00;89.20;;;;;;4939196;29;20417;-61
2023/07/31 16:34:37;;;;;;;1.10;1.00;;;24.90;89.50;;;;;;4938607;29;20452;-60
2023/07/31 16:37:03;;;;;;;2.33;2.00;;;24.80;89.70;;;;;;4939036;29;20205;-59
2023/07/31 16:39:34;;;;;;;1.83;1.73;;;24.80;90.30;;;;;;4938506;29;20213;-61
2023/07/31 16:42:00;;;;;;;1.00;1.00;;;24.70;90.20;;;;;;4939031;29;20380;-60
2023/07/31 16:44:26;;;;;;;1.43;1.40;;;24.60;90.70;;;;;;4938065;29;20404;-60
2023/07/31 16:46:52;;;;;;;1.57;1.37;;;24.60;91.00;;;;;;4938951;29;20413;-60
2023/07/31 16:49:17;;;;;;;3.70;1.30;;;24.60;91.40;;;;;;4938692;29;20177;-61
2023/07/31 16:51:43;;;;;;;0.70;0.70;;;24.60;91.30;;;;;;4938960;29;20648;-61